createdAt,value
2018-05-27T00:00:05.367Z,101513
2018-05-27T00:03:14.664Z,101511
2018-05-27T00:06:24.108Z,101508
2018-05-27T00:09:33.685Z,101505
2018-05-27T00:12:43.192Z,101500
2018-05-27T00:15:53.164Z,101494
2018-05-27T00:19:04.041Z,101491
2018-05-27T00:22:13.522Z,101493
2018-05-27T00:25:23.961Z,101492
2018-05-27T00:28:34.215Z,101491
2018-05-27T00:31:43.628Z,101481
2018-05-27T00:34:53.215Z,101488
2018-05-27T00:38:04.753Z,101481
2018-05-27T00:41:16.969Z,101480
2018-05-27T00:44:26.528Z,101486
2018-05-27T00:47:35.961Z,101488
2018-05-27T00:50:45.975Z,101487
2018-05-27T00:54:01.354Z,101485
2018-05-27T00:57:11.186Z,101478
2018-05-27T01:00:20.593Z,101474
2018-05-27T01:03:30.223Z,101476
2018-05-27T01:06:39.742Z,101478
2018-05-27T01:09:49.780Z,101474
2018-05-27T01:12:59.211Z,101470
2018-05-27T01:16:08.574Z,101466
2018-05-27T01:19:17.904Z,101464
2018-05-27T01:22:28.607Z,101461
2018-05-27T01:25:38.561Z,101463
2018-05-27T01:28:48.104Z,101467
2018-05-27T01:31:58.116Z,101467
2018-05-27T01:35:10.213Z,101467
2018-05-27T01:38:20.361Z,101469
2018-05-27T01:41:29.737Z,101466
2018-05-27T01:44:39.355Z,101460
2018-05-27T01:47:49.065Z,101457
2018-05-27T01:50:58.698Z,101450
2018-05-27T01:54:08.849Z,101452
2018-05-27T01:57:19.217Z,101451
2018-05-27T02:00:28.718Z,101443
2018-05-27T02:03:39.024Z,101446
2018-05-27T02:06:49.285Z,101448
2018-05-27T02:09:58.827Z,101439
2018-05-27T02:13:09.738Z,101440
2018-05-27T02:16:19.820Z,101440
2018-05-27T02:19:29.197Z,101440
2018-05-27T02:22:39.259Z,101436
2018-05-27T02:25:49.109Z,101436
2018-05-27T02:29:00.240Z,101432
2018-05-27T02:32:11.094Z,101419
2018-05-27T02:35:20.501Z,101437
2018-05-27T02:38:30.108Z,101445
2018-05-27T02:41:40.528Z,101446
2018-05-27T02:44:50.049Z,101444
2018-05-27T02:47:59.988Z,101452
2018-05-27T02:51:10.839Z,101453
2018-05-27T02:54:20.121Z,101454
2018-05-27T02:57:30.038Z,101454
2018-05-27T03:00:40.133Z,101449
2018-05-27T03:03:50.288Z,101448
2018-05-27T03:07:00.586Z,101452
2018-05-27T03:10:12.405Z,101447
2018-05-27T03:13:22.216Z,101452
2018-05-27T03:16:31.628Z,101448
2018-05-27T03:19:41.660Z,101455
2018-05-27T03:22:51.640Z,101452
2018-05-27T03:26:01.890Z,101452
2018-05-27T03:29:13.492Z,101456
2018-05-27T03:32:24.878Z,101453
2018-05-27T03:35:34.376Z,101455
2018-05-27T03:38:44.129Z,101453
2018-05-27T03:41:54.128Z,101454
2018-05-27T03:45:04.128Z,101451
2018-05-27T03:48:14.784Z,101453
2018-05-27T03:51:24.857Z,101457
2018-05-27T03:54:35.101Z,101448
2018-05-27T03:57:45.217Z,101452
2018-05-27T04:00:55.936Z,101449
2018-05-27T04:04:23.304Z,101447
2018-05-27T04:07:50.669Z,101442
2018-05-27T04:11:00.053Z,101442
2018-05-27T04:14:09.656Z,101443
2018-05-27T04:17:18.966Z,101439
2018-05-27T04:20:29.284Z,101439
2018-05-27T04:23:38.824Z,101441
2018-05-27T04:26:49.088Z,101444
2018-05-27T04:29:59.416Z,101441
2018-05-27T04:33:09.722Z,101436
2018-05-27T04:36:19.964Z,101431
2018-05-27T04:39:29.433Z,101427
2018-05-27T04:42:39.645Z,101427
2018-05-27T04:45:49.901Z,101419
2018-05-27T04:49:00.372Z,101421
2018-05-27T04:52:09.808Z,101417
2018-05-27T04:55:19.276Z,101409
2018-05-27T04:58:28.791Z,101409
2018-05-27T05:01:39.671Z,101409
2018-05-27T05:04:49.107Z,101408
2018-05-27T05:07:58.477Z,101408
2018-05-27T05:11:09.342Z,101412
2018-05-27T05:14:19.516Z,101410
2018-05-27T05:17:29.040Z,101415
2018-05-27T05:20:39.084Z,101419
2018-05-27T05:23:48.534Z,101421
2018-05-27T05:26:58.063Z,101425
2018-05-27T05:30:07.413Z,101430
2018-05-27T05:33:17.005Z,101426
2018-05-27T05:36:26.629Z,101437
2018-05-27T05:39:36.225Z,101438
2018-05-27T05:42:45.885Z,101439
2018-05-27T05:45:55.596Z,101436
2018-05-27T05:49:05.621Z,101431
2018-05-27T05:52:15.391Z,101427
2018-05-27T05:55:29.071Z,101429
2018-05-27T05:58:38.424Z,101433
2018-05-27T06:01:47.885Z,101432
2018-05-27T06:04:58.272Z,101441
2018-05-27T06:08:07.654Z,101438
2018-05-27T06:11:17.102Z,101440
2018-05-27T06:14:27.284Z,101437
2018-05-27T06:17:37.648Z,101441
2018-05-27T06:20:47.985Z,101441
2018-05-27T06:23:57.324Z,101436
2018-05-27T06:27:06.856Z,101442
2018-05-27T06:30:17.113Z,101435
2018-05-27T06:33:26.954Z,101432
2018-05-27T06:36:40.724Z,101433
2018-05-27T06:39:50.381Z,101432
2018-05-27T06:43:00.616Z,101440
2018-05-27T06:46:10.184Z,101443
2018-05-27T06:49:19.619Z,101431
2018-05-27T06:52:29.112Z,101431
2018-05-27T06:55:38.481Z,101434
2018-05-27T06:58:49.678Z,101430
2018-05-27T07:02:00.049Z,101412
2018-05-27T07:05:10.106Z,101423
2018-05-27T07:08:19.524Z,101426
2018-05-27T07:11:28.856Z,101420
2018-05-27T07:14:39.121Z,101418
2018-05-27T07:17:48.551Z,101422
2018-05-27T07:21:00.486Z,101415
2018-05-27T07:24:10.461Z,101413
2018-05-27T07:27:19.813Z,101418
2018-05-27T07:30:30.183Z,101410
2018-05-27T07:33:43.167Z,101407
2018-05-27T07:36:56.122Z,101401
2018-05-27T07:40:06.269Z,101398
2018-05-27T07:43:17.624Z,101397
2018-05-27T07:46:27.821Z,101393
2018-05-27T07:49:38.683Z,101395
2018-05-27T07:52:49.932Z,101386
2018-05-27T07:55:59.293Z,101377
2018-05-27T07:59:09.185Z,101388
2018-05-27T08:02:19.341Z,101388
2018-05-27T08:05:29.284Z,101383
2018-05-27T08:08:38.637Z,101390
2018-05-27T08:11:48.096Z,101380
2018-05-27T08:14:58.273Z,101382
2018-05-27T08:18:10.349Z,101379
2018-05-27T08:21:21.303Z,101373
2018-05-27T08:24:32.409Z,101366
2018-05-27T08:27:43.002Z,101368
2018-05-27T08:30:54.868Z,101364
2018-05-27T08:34:04.637Z,101367
2018-05-27T08:37:14.169Z,101360
2018-05-27T08:40:25.856Z,101358
2018-05-27T08:43:36.053Z,101349
2018-05-27T08:46:48.650Z,101345
2018-05-27T08:49:58.201Z,101347
2018-05-27T08:53:08.326Z,101343
2018-05-27T08:56:17.757Z,101346
2018-05-27T08:59:27.190Z,101341
2018-05-27T09:02:37.548Z,101341
2018-05-27T09:05:47.256Z,101342
2018-05-27T09:08:57.811Z,101338
2018-05-27T09:12:07.382Z,101353
2018-05-27T09:15:17.929Z,101343
2018-05-27T09:18:27.997Z,101340
2018-05-27T09:21:38.260Z,101338
2018-05-27T09:24:48.300Z,101335
2018-05-27T09:27:58.127Z,101332
2018-05-27T09:31:07.539Z,101327
2018-05-27T09:34:17.079Z,101339
2018-05-27T09:37:28.668Z,101326
2018-05-27T09:40:43.856Z,101334
2018-05-27T09:43:53.348Z,101336
2018-05-27T09:47:04.067Z,101340
2018-05-27T09:50:14.508Z,101329
2018-05-27T09:53:24.090Z,101327
2018-05-27T09:56:33.696Z,101324
2018-05-27T09:59:43.968Z,101318
2018-05-27T10:02:53.434Z,101315
2018-05-27T10:06:03.655Z,101301
2018-05-27T10:09:17.200Z,101301
2018-05-27T10:12:27.809Z,101290
2018-05-27T10:15:37.237Z,101302
2018-05-27T10:18:46.739Z,101306
2018-05-27T10:22:00.006Z,101303
2018-05-27T10:25:10.267Z,101303
2018-05-27T10:28:19.773Z,101301
2018-05-27T10:31:29.551Z,101294
2018-05-27T10:34:38.948Z,101303
2018-05-27T10:37:48.401Z,101294
2018-05-27T10:40:57.909Z,101285
2018-05-27T10:44:07.493Z,101288
2018-05-27T10:47:16.863Z,101279
2018-05-27T10:50:26.203Z,101285
2018-05-27T10:53:35.656Z,101283
2018-05-27T10:56:45.145Z,101282
2018-05-27T10:59:55.333Z,101277
2018-05-27T11:03:05.460Z,101260
2018-05-27T11:06:14.840Z,101261
2018-05-27T11:09:25.432Z,101265
2018-05-27T11:12:34.830Z,101251
2018-05-27T11:15:46.506Z,101250
2018-05-27T11:18:57.111Z,101238
2018-05-27T11:22:07.633Z,101235
2018-05-27T11:25:21.869Z,101232
2018-05-27T11:28:31.993Z,101235
2018-05-27T11:31:41.405Z,101231
2018-05-27T11:34:50.812Z,101232
2018-05-27T11:38:00.261Z,101223
2018-05-27T11:41:09.596Z,101234
2018-05-27T11:44:19.329Z,101222
2018-05-27T11:47:28.857Z,101225
2018-05-27T11:50:38.195Z,101225
2018-05-27T11:53:47.715Z,101211
2018-05-27T11:56:57.997Z,101218
2018-05-27T12:00:07.370Z,101214
2018-05-27T12:03:16.726Z,101213
2018-05-27T12:06:26.960Z,101212
2018-05-27T12:09:36.411Z,101210
2018-05-27T12:12:45.862Z,101216
2018-05-27T12:15:55.162Z,101208
2018-05-27T12:19:05.742Z,101196
2018-05-27T12:22:22.822Z,101201
2018-05-27T12:25:44.262Z,101193
2018-05-27T12:29:01.435Z,101197
2018-05-27T12:32:19.698Z,101189
2018-05-27T12:35:29.156Z,101192
2018-05-27T12:38:38.564Z,101183
2018-05-27T12:41:48.574Z,101179
2018-05-27T12:44:57.968Z,101175
2018-05-27T12:48:07.296Z,101183
2018-05-27T12:51:20.654Z,101184
2018-05-27T12:54:30.791Z,101181
2018-05-27T12:57:41.691Z,101180
2018-05-27T13:00:52.001Z,101179
2018-05-27T13:04:01.438Z,101172
2018-05-27T13:07:15.049Z,101165
2018-05-27T13:10:24.536Z,101160
2018-05-27T13:13:36.452Z,101157
2018-05-27T13:16:46.346Z,101144
2018-05-27T13:19:57.320Z,101131
2018-05-27T13:23:07.545Z,101119
2018-05-27T13:26:16.917Z,101110
2018-05-27T13:29:26.561Z,101113
2018-05-27T13:32:36.096Z,101108
2018-05-27T13:35:46.360Z,101120
2018-05-27T13:38:56.468Z,101121
2018-05-27T13:42:07.781Z,101142
2018-05-27T13:45:17.501Z,101148
2018-05-27T13:48:27.048Z,101143
2018-05-27T13:51:36.544Z,101136
2018-05-27T13:54:45.796Z,101147
2018-05-27T13:57:55.219Z,101138
2018-05-27T14:01:04.664Z,101143
2018-05-27T14:04:14.299Z,101144
2018-05-27T14:07:23.816Z,101139
2018-05-27T14:10:33.150Z,101137
2018-05-27T14:13:42.678Z,101132
2018-05-27T14:16:52.969Z,101130
2018-05-27T14:20:02.967Z,101125
2018-05-27T14:23:12.840Z,101121
2018-05-27T14:26:23.114Z,101116
2018-05-27T14:29:33.624Z,101111
2018-05-27T14:32:43.528Z,101116
2018-05-27T14:35:53.960Z,101116
2018-05-27T14:39:03.836Z,101120
2018-05-27T14:42:13.299Z,101114
2018-05-27T14:45:23.493Z,101125
2018-05-27T14:48:33.701Z,101124
2018-05-27T14:51:43.565Z,101125
2018-05-27T14:54:53.124Z,101124
2018-05-27T14:58:02.564Z,101119
2018-05-27T15:01:12.104Z,101119
2018-05-27T15:04:21.997Z,101118
2018-05-27T15:07:35.559Z,101121
2018-05-27T15:10:45.113Z,101118
2018-05-27T15:13:55.000Z,101127
2018-05-27T15:17:05.413Z,101138
2018-05-27T15:20:15.454Z,101161
2018-05-27T15:23:25.233Z,101189
2018-05-27T15:26:35.238Z,101198
2018-05-27T15:29:45.840Z,101183
2018-05-27T15:32:56.142Z,101203
2018-05-27T15:36:06.802Z,101201
2018-05-27T15:39:17.587Z,101200
2018-05-27T15:42:28.031Z,101194
2018-05-27T15:45:37.849Z,101187
2018-05-27T15:48:48.217Z,101181
2018-05-27T15:51:58.365Z,101181
2018-05-27T15:55:08.732Z,101183
2018-05-27T15:58:18.528Z,101186
2018-05-27T16:01:27.883Z,101185
2018-05-27T16:04:37.630Z,101183
2018-05-27T16:07:47.235Z,101187
2018-05-27T16:10:56.647Z,101183
2018-05-27T16:14:06.879Z,101181
2018-05-27T16:17:16.258Z,101180
2018-05-27T16:20:27.669Z,101174
2018-05-27T16:23:37.242Z,101178
2018-05-27T16:26:47.401Z,101173
2018-05-27T16:29:57.024Z,101177
2018-05-27T16:33:06.635Z,101177
2018-05-27T16:36:16.062Z,101178
2018-05-27T16:39:25.539Z,101186
2018-05-27T16:42:34.981Z,101200
2018-05-27T16:45:44.548Z,101197
2018-05-27T16:48:54.723Z,101191
2018-05-27T16:52:04.656Z,101198
2018-05-27T16:55:14.885Z,101195
2018-05-27T16:58:24.949Z,101198
2018-05-27T17:01:34.432Z,101193
2018-05-27T17:04:44.664Z,101195
2018-05-27T17:07:54.124Z,101187
2018-05-27T17:11:04.534Z,101181
2018-05-27T17:14:13.862Z,101176
2018-05-27T17:17:30.345Z,101176
2018-05-27T17:20:40.240Z,101173
2018-05-27T17:23:49.495Z,101168
2018-05-27T17:26:59.525Z,101156
2018-05-27T17:30:08.864Z,101152
2018-05-27T17:33:18.649Z,101141
2018-05-27T17:36:28.301Z,101112
2018-05-27T17:39:40.086Z,101122
2018-05-27T17:42:51.929Z,101123
2018-05-27T17:46:01.405Z,101124
2018-05-27T17:49:10.778Z,101117
2018-05-27T17:52:20.324Z,101112
2018-05-27T17:55:30.710Z,101106
2018-05-27T17:58:40.669Z,101102
2018-05-27T18:01:50.574Z,101093
2018-05-27T18:05:00.100Z,101083
2018-05-27T18:08:11.494Z,101090
2018-05-27T18:11:21.529Z,101103
2018-05-27T18:14:30.860Z,101104
2018-05-27T18:17:40.280Z,101113
2018-05-27T18:20:50.182Z,101132
2018-05-27T18:24:04.658Z,101145
2018-05-27T18:27:15.587Z,101167
2018-05-27T18:30:25.632Z,101171
2018-05-27T18:33:35.298Z,101181
2018-05-27T18:36:47.474Z,101187
2018-05-27T18:39:56.941Z,101195
2018-05-27T18:43:07.321Z,101206
2018-05-27T18:46:17.225Z,101211
2018-05-27T18:49:28.001Z,101207
2018-05-27T18:52:38.864Z,101212
2018-05-27T18:55:49.641Z,101213
2018-05-27T18:59:00.307Z,101217
2018-05-27T19:02:11.162Z,101217
2018-05-27T19:05:20.916Z,101218
2018-05-27T19:08:30.249Z,101230
2018-05-27T19:11:39.668Z,101231
2018-05-27T19:14:50.750Z,101237
2018-05-27T19:18:01.426Z,101237
2018-05-27T19:21:10.976Z,101236
2018-05-27T19:24:20.357Z,101251
2018-05-27T19:27:30.244Z,101251
2018-05-27T19:30:41.045Z,101248
2018-05-27T19:33:51.301Z,101245
2018-05-27T19:37:00.794Z,101245
2018-05-27T19:40:11.217Z,101241
2018-05-27T19:43:20.875Z,101239
2018-05-27T19:46:31.264Z,101244
2018-05-27T19:49:42.269Z,101256
2018-05-27T19:52:52.769Z,101258
2018-05-27T19:56:02.160Z,101259
2018-05-27T19:59:12.144Z,101258
2018-05-27T20:02:22.740Z,101262
2018-05-27T20:05:33.328Z,101251
2018-05-27T20:08:43.697Z,101239
2018-05-27T20:11:54.301Z,101237
2018-05-27T20:15:03.955Z,101228
2018-05-27T20:18:14.653Z,101229
2018-05-27T20:21:24.531Z,101228
2018-05-27T20:24:34.681Z,101226
2018-05-27T20:27:44.928Z,101227
2018-05-27T20:30:55.322Z,101221
2018-05-27T20:34:05.232Z,101213
2018-05-27T20:37:15.447Z,101212
2018-05-27T20:40:25.209Z,101205
2018-05-27T20:43:37.194Z,101200
2018-05-27T20:46:47.869Z,101196
2018-05-27T20:50:00.643Z,101202
2018-05-27T20:53:11.420Z,101208
2018-05-27T20:56:23.726Z,101220
2018-05-27T20:59:33.664Z,101218
2018-05-27T21:02:44.924Z,101222
2018-05-27T21:05:54.991Z,101222
2018-05-27T21:09:04.277Z,101221
2018-05-27T21:12:14.600Z,101219
2018-05-27T21:15:24.157Z,101215
2018-05-27T21:18:33.995Z,101217
2018-05-27T21:21:43.448Z,101225
2018-05-27T21:24:54.093Z,101227
2018-05-27T21:28:03.530Z,101231
2018-05-27T21:31:12.984Z,101232
2018-05-27T21:34:22.604Z,101230
2018-05-27T21:37:31.981Z,101234
2018-05-27T21:40:41.548Z,101240
2018-05-27T21:43:51.501Z,101245
2018-05-27T21:47:01.777Z,101248
2018-05-27T21:50:11.209Z,101253
2018-05-27T21:53:20.689Z,101251
2018-05-27T21:56:30.332Z,101254
2018-05-27T21:59:40.133Z,101250
2018-05-27T22:02:51.380Z,101253
2018-05-27T22:06:02.098Z,101250
2018-05-27T22:09:11.643Z,101248
2018-05-27T22:12:21.496Z,101254
2018-05-27T22:15:31.394Z,101252
2018-05-27T22:18:41.270Z,101251
2018-05-27T22:21:50.730Z,101254
2018-05-27T22:25:00.937Z,101251
2018-05-27T22:28:10.760Z,101250
2018-05-27T22:31:21.054Z,101241
2018-05-27T22:34:31.042Z,101244
2018-05-27T22:37:40.345Z,101235
2018-05-27T22:40:50.128Z,101239
2018-05-27T22:43:59.484Z,101234
2018-05-27T22:47:08.905Z,101245
2018-05-27T22:50:20.010Z,101245
2018-05-27T22:53:33.275Z,101240
2018-05-27T22:56:43.110Z,101235
2018-05-27T22:59:52.508Z,101228
2018-05-27T23:03:01.789Z,101229
2018-05-27T23:06:12.408Z,101215
2018-05-27T23:09:22.243Z,101209
2018-05-27T23:12:31.569Z,101207
2018-05-27T23:15:41.018Z,101204
2018-05-27T23:18:51.392Z,101207
2018-05-27T23:22:01.621Z,101214
2018-05-27T23:25:11.925Z,101219
2018-05-27T23:28:21.462Z,101213
2018-05-27T23:31:30.889Z,101213
2018-05-27T23:34:40.301Z,101214
2018-05-27T23:37:49.807Z,101209
2018-05-27T23:41:01.378Z,101207
2018-05-27T23:44:10.804Z,101206
2018-05-27T23:47:20.508Z,101206
2018-05-27T23:50:30.713Z,101213
2018-05-27T23:53:40.642Z,101214
2018-05-27T23:56:50.749Z,101216
